»·PEaware :: UAL2150 KSNA-KSFO

UAL2150 :: KSNA-KSFO

FLIGHT INFORMATION

Flight Status: Arrived
Operator:
United Airlines
More flights by this operator :: More flights under this callsign
Pilot: Isaac S. (19126)
Aircraft: AIRBUS A320
(A320)
More flights by this aircraft type
Origin: KSNA John Wayne-Orange Co
United States
Destination: KSFO San Francisco Intl
United States
More flights between these airports :: More routes between these airports
Route: HHERO2 IKAYE RIZIN SPLNT STOKD SERFR SERFR3
File this flight plan on PilotEdge
Remarks: PBN / A1B1C1D1O1S1 DOF / 180506 REG / N320SB EET / KZOA0035 OPR / UAL PER / C RMK / TCAS SIMBRIEF
Altitude:
(Current/Filed)
30,000ft
Speed:
(Current/Filed)
413kts
Departed: 06-May-18 01:19 PM
Arrived: 06-May-18 02:21 PM
Distance/Time
Traveled:
323nm/1:02
Distance/Time
To Go:
Arrived

Flight Plot

Page will automatically refresh every two minutes.

Flight plan parsing failed; only flown route is shown


Map Options




Map Legend


Flown Route
Filed Route
Departure Airport
Arrival Airport
Navaid (VOR, NDB)
Fix

Horizontal Profiles

Position Reports

Time Latitude Longitude Heading Altitude Ground
Speed
06-May-18 12:19 33.679315 -117.862361 117 70ft 0kts
06-May-18 12:20 33.679315 -117.862361 117 70ft 0kts
06-May-18 12:21 33.679315 -117.862361 117 70ft 0kts
06-May-18 12:22 33.679315 -117.862361 117 70ft 0kts
06-May-18 12:23 33.679315 -117.862361 117 70ft 0kts
06-May-18 12:24 33.679315 -117.862361 117 70ft 0kts
06-May-18 12:25 33.679315 -117.862361 117 70ft 0kts
06-May-18 12:27 33.679315 -117.862361 117 70ft 0kts
06-May-18 12:28 33.679315 -117.862361 117 70ft 0kts
06-May-18 12:29 33.679315 -117.862361 117 70ft 0kts
06-May-18 12:30 33.679315 -117.862361 117 70ft 0kts
06-May-18 12:31 33.679315 -117.862361 117 70ft 0kts
06-May-18 12:32 33.679315 -117.862361 117 70ft 0kts
06-May-18 12:33 33.679315 -117.862361 117 70ft 0kts
06-May-18 12:34 33.679315 -117.862361 117 70ft 0kts
06-May-18 12:35 33.679315 -117.862361 117 70ft 0kts
06-May-18 12:36 33.679315 -117.862361 117 70ft 0kts
06-May-18 12:37 33.679315 -117.862361 117 70ft 0kts
06-May-18 12:38 33.679315 -117.862361 117 70ft 0kts
06-May-18 12:39 33.679315 -117.862361 117 70ft 0kts
06-May-18 12:40 33.679315 -117.862361 117 70ft 0kts
06-May-18 12:41 33.679315 -117.862361 117 70ft 0kts
06-May-18 12:42 33.679315 -117.862361 117 70ft 0kts
06-May-18 12:43 33.679315 -117.862361 117 70ft 0kts
06-May-18 12:44 33.679315 -117.862361 117 70ft 0kts
06-May-18 12:45 33.679315 -117.862361 117 70ft 0kts
06-May-18 12:46 33.679315 -117.862361 117 70ft 0kts
06-May-18 12:47 33.679315 -117.862361 117 70ft 0kts
06-May-18 12:48 33.679315 -117.862361 117 70ft 0kts
06-May-18 12:49 33.679315 -117.862361 117 70ft 0kts
06-May-18 12:50 33.679315 -117.862361 117 70ft 0kts
06-May-18 12:51 33.679315 -117.862361 117 70ft 0kts
06-May-18 12:52 33.679315 -117.862361 117 70ft 0kts
06-May-18 12:53 33.679315 -117.862361 117 70ft 0kts
06-May-18 12:54 33.679315 -117.862361 117 70ft 0kts
06-May-18 12:55 33.679315 -117.862361 117 70ft 0kts
06-May-18 12:56 33.679315 -117.862361 117 70ft 0kts
06-May-18 12:57 33.679315 -117.862361 117 70ft 0kts
06-May-18 12:58 33.679315 -117.862361 117 70ft 0kts
06-May-18 12:59 33.679315 -117.862361 117 70ft 0kts
06-May-18 13:00 33.679315 -117.862361 117 70ft 0kts
06-May-18 13:01 33.679315 -117.862361 117 70ft 0kts
06-May-18 13:02 33.679315 -117.862361 117 70ft 0kts
06-May-18 13:03 33.679315 -117.862361 117 70ft 0kts
06-May-18 13:04 33.679337 -117.862412 116 70ft 2kts
06-May-18 13:05 33.679427 -117.863112 40 70ft 2kts
06-May-18 13:06 33.679259 -117.863233 27 70ft 0kts
06-May-18 13:07 33.679259 -117.863233 27 70ft 0kts
06-May-18 13:08 33.679260 -117.863232 27 70ft 0kts
06-May-18 13:09 33.679261 -117.863232 27 70ft 0kts
06-May-18 13:10 33.679261 -117.863231 27 70ft 0kts
06-May-18 13:11 33.679262 -117.863231 27 70ft 0kts
06-May-18 13:12 33.679263 -117.863230 27 70ft 0kts
06-May-18 13:13 33.679780 -117.862904 28 70ft 11kts
06-May-18 13:14 33.680671 -117.863243 298 70ft 0kts
06-May-18 13:15 33.680671 -117.863243 298 70ft 0kts
06-May-18 13:16 33.680672 -117.863244 298 70ft 0kts
06-May-18 13:17 33.680672 -117.863245 298 70ft 0kts
06-May-18 13:18 33.680857 -117.865605 208 70ft 10kts
06-May-18 13:19 33.650892 -117.884505 207 1227ft 195kts
06-May-18 13:20 33.589518 -117.896434 187 3866ft 251kts
06-May-18 13:21 33.529876 -117.946214 224 6905ft 274kts
06-May-18 13:22 33.475300 -118.011608 235 8045ft 279kts
06-May-18 13:23 33.435699 -118.093474 238 9991ft 286kts
06-May-18 13:24 33.414396 -118.175482 277 10016ft 292kts
06-May-18 13:25 33.435253 -118.277954 280 11059ft 344kts
06-May-18 13:26 33.477229 -118.386976 295 13291ft 366kts
06-May-18 13:27 33.529233 -118.493504 312 15648ft 382kts
06-May-18 13:28 33.618008 -118.568170 322 17854ft 394kts
06-May-18 13:29 33.708731 -118.644747 321 19880ft 404kts
06-May-18 13:30 33.802030 -118.722638 320 21737ft 413kts
06-May-18 13:31 33.897300 -118.802748 320 23078ft 419kts
06-May-18 13:32 33.992821 -118.883202 320 23314ft 421kts
06-May-18 13:33 34.089356 -118.964740 320 24865ft 427kts
06-May-18 13:34 34.172413 -119.065046 298 26263ft 424kts
06-May-18 13:35 34.233810 -119.186749 298 27966ft 422kts
06-May-18 13:36 34.295665 -119.306572 298 29770ft 416kts
06-May-18 13:37 34.356332 -119.425226 298 30094ft 414kts
06-May-18 13:38 34.419026 -119.542300 307 30091ft 419kts
06-May-18 13:39 34.495604 -119.636026 311 30138ft 421kts
06-May-18 13:40 34.577443 -119.737278 310 30135ft 420kts
06-May-18 13:41 34.659527 -119.838641 310 30107ft 419kts
06-May-18 13:42 34.741103 -119.939766 310 30078ft 419kts
06-May-18 13:43 34.822461 -120.040962 310 30070ft 419kts
06-May-18 13:44 34.904071 -120.142741 310 30088ft 419kts
06-May-18 13:45 34.985312 -120.244341 310 30123ft 418kts
06-May-18 13:46 35.066315 -120.345997 309 30170ft 418kts
06-May-18 13:47 35.150708 -120.443415 313 30169ft 420kts
06-May-18 13:48 35.236368 -120.539435 312 30164ft 419kts
06-May-18 13:49 35.323261 -120.637193 312 30081ft 420kts
06-May-18 13:50 35.408941 -120.733823 312 30097ft 419kts
06-May-18 13:51 35.495566 -120.829599 317 30116ft 422kts
06-May-18 13:52 35.589761 -120.916525 318 30118ft 422kts
06-May-18 13:53 35.683272 -121.003704 317 30125ft 422kts
06-May-18 13:54 35.769478 -121.084115 317 30126ft 422kts
06-May-18 13:55 35.863240 -121.171843 317 30131ft 422kts
06-May-18 13:56 35.956560 -121.259414 317 30117ft 422kts
06-May-18 13:57 36.050047 -121.347364 317 30134ft 420kts
06-May-18 13:58 36.147401 -121.426317 322 29984ft 415kts
06-May-18 13:59 36.242945 -121.500890 322 27943ft 401kts
06-May-18 14:00 36.335848 -121.573645 322 25925ft 387kts
06-May-18 14:01 36.425085 -121.643775 322 24043ft 373kts
06-May-18 14:02 36.511181 -121.711616 322 22248ft 363kts
06-May-18 14:03 36.595874 -121.778624 322 20496ft 356kts
06-May-18 14:03 36.665143 -121.833532 322 19026ft 352kts
06-May-18 14:05 36.764419 -121.901679 341 16910ft 353kts
06-May-18 14:06 36.859125 -121.926762 342 15163ft 342kts
06-May-18 14:07 36.950346 -121.952719 341 13478ft 330kts
06-May-18 14:08 37.037573 -121.986486 338 11916ft 327kts
06-May-18 14:08 37.101373 -122.011345 339 10822ft 322kts
06-May-18 14:09 37.182224 -122.042992 340 9710ft 299kts
06-May-18 14:10 37.260965 -122.073837 341 8243ft 291kts
06-May-18 14:11 37.336029 -122.103675 340 6736ft 269kts
06-May-18 14:12 37.400849 -122.128156 343 6120ft 217kts
06-May-18 14:13 37.457550 -122.147565 342 4858ft 209kts
06-May-18 14:14 37.512434 -122.166423 341 3461ft 201kts
06-May-18 14:15 37.547596 -122.205611 295 2704ft 168kts
06-May-18 14:16 37.569073 -122.256743 295 1841ft 161kts
06-May-18 14:17 37.587180 -122.299781 294 1083ft 120kts
06-May-18 14:18 37.602594 -122.336588 294 461ft 119kts
06-May-18 14:19 37.616822 -122.370488 297 27ft 53kts
06-May-18 14:20 37.619866 -122.379025 230 27ft 16kts
06-May-18 14:21 37.620955 -122.385170 297 27ft 23kts
06-May-18 14:22 37.621060 -122.391983 212 27ft 15kts
06-May-18 14:23 37.620720 -122.390595 73 27ft 0kts
06-May-18 14:24 37.620720 -122.390595 73 27ft 0kts

Navigation Log

Ident Type
Flight plan parsing failed, navigation log unavailable